San Diego, California
Traffic Map
Current Weather Conditions
San Diego, California
Scattered Clouds
Scattered Clouds
21°
Feels Like: 21°
Wind Chill: 21° Ceiling: Unl
Heat Index: 21° Visibility: 10mi
Dew Point: 16° Wind: 5mph
Humidity: 73% Direction: 310° (NW)
Pressure: 29.9in Gusts: 0mph
Raw Report DataKSAN 300251Z 31004KT 10SM FEW012 SCT170 SCT220 21/16 A2990 RMK AO2 SLP125 T02110161 53000 $
Traffic Incident Summary
Active as of:
Severity:
Category:
InformationThere was an issue retrieving the traffic information for this location. Please try a different location or try again shortly.
Advertisements
Track Severe Weather on mobile